sensor_id;sensor_type;location;lat;lon;timestamp;P1;durP1;ratioP1;P2;durP2;ratioP2
21084;SDS011;34247;50.064;19.970;2023-03-14T00:00:12;1.00;;;1.00;;
21084;SDS011;34247;50.064;19.970;2023-03-14T00:01:18;3.70;;;1.35;;
21084;SDS011;34247;50.064;19.970;2023-03-14T00:02:23;1.75;;;1.13;;
21084;SDS011;34247;50.064;19.970;2023-03-14T00:03:28;2.53;;;1.30;;
21084;SDS011;34247;50.064;19.970;2023-03-14T00:04:32;1.20;;;1.10;;
21084;SDS011;34247;50.064;19.970;2023-03-14T00:05:36;2.30;;;1.30;;
21084;SDS011;34247;50.064;19.970;2023-03-14T00:06:39;2.72;;;1.30;;
21084;SDS011;34247;50.064;19.970;2023-03-14T00:07:43;1.20;;;1.10;;
21084;SDS011;34247;50.064;19.970;2023-03-14T00:08:47;1.23;;;1.13;;
21084;SDS011;34247;50.064;19.970;2023-03-14T00:09:51;1.55;;;1.40;;
21084;SDS011;34247;50.064;19.970;2023-03-14T00:10:55;1.17;;;1.10;;
21084;SDS011;34247;50.064;19.970;2023-03-14T00:12:00;1.27;;;1.17;;
21084;SDS011;34247;50.064;19.970;2023-03-14T00:13:06;1.13;;;1.02;;
21084;SDS011;34247;50.064;19.970;2023-03-14T00:14:09;1.00;;;1.00;;
21084;SDS011;34247;50.064;19.970;2023-03-14T00:15:14;1.00;;;1.00;;
21084;SDS011;34247;50.064;19.970;2023-03-14T00:16:19;0.95;;;0.95;;
21084;SDS011;34247;50.064;19.970;2023-03-14T00:17:23;1.58;;;1.08;;
21084;SDS011;34247;50.064;19.970;2023-03-14T00:18:26;2.10;;;1.55;;
21084;SDS011;34247;50.064;19.970;2023-03-14T00:19:30;4.78;;;1.85;;
21084;SDS011;34247;50.064;19.970;2023-03-14T00:20:34;1.20;;;1.10;;
21084;SDS011;34247;50.064;19.970;2023-03-14T00:21:38;1.45;;;1.35;;
21084;SDS011;34247;50.064;19.970;2023-03-14T00:22:42;0.88;;;0.88;;
21084;SDS011;34247;50.064;19.970;2023-03-14T00:23:46;1.33;;;1.17;;
21084;SDS011;34247;50.064;19.970;2023-03-14T00:24:50;3.42;;;1.33;;
21084;SDS011;34247;50.064;19.970;2023-03-14T00:25:53;1.00;;;1.00;;
21084;SDS011;34247;50.064;19.970;2023-03-14T00:27:02;1.00;;;1.00;;
21084;SDS011;34247;50.064;19.970;2023-03-14T00:28:06;0.80;;;0.80;;
21084;SDS011;34247;50.064;19.970;2023-03-14T00:29:10;3.17;;;1.30;;
21084;SDS011;34247;50.064;19.970;2023-03-14T00:30:14;1.00;;;1.00;;
21084;SDS011;34247;50.064;19.970;2023-03-14T00:31:18;1.77;;;1.20;;
21084;SDS011;34247;50.064;19.970;2023-03-14T00:32:22;0.98;;;0.90;;
21084;SDS011;34247;50.064;19.970;2023-03-14T00:33:26;3.00;;;1.25;;
21084;SDS011;34247;50.064;19.970;2023-03-14T00:34:30;1.67;;;1.58;;
21084;SDS011;34247;50.064;19.970;2023-03-14T00:35:35;1.30;;;1.20;;
21084;SDS011;34247;50.064;19.970;2023-03-14T00:36:39;2.70;;;1.27;;
21084;SDS011;34247;50.064;19.970;2023-03-14T00:37:43;2.05;;;1.45;;
21084;SDS011;34247;50.064;19.970;2023-03-14T00:38:48;2.83;;;1.75;;
21084;SDS011;34247;50.064;19.970;2023-03-14T00:39:54;1.83;;;1.23;;
21084;SDS011;34247;50.064;19.970;2023-03-14T00:41:07;1.52;;;1.05;;
21084;SDS011;34247;50.064;19.970;2023-03-14T00:42:15;1.17;;;0.98;;
21084;SDS011;34247;50.064;19.970;2023-03-14T00:43:20;1.85;;;1.45;;
21084;SDS011;34247;50.064;19.970;2023-03-14T00:44:25;1.08;;;1.08;;
21084;SDS011;34247;50.064;19.970;2023-03-14T00:45:29;1.25;;;1.25;;
21084;SDS011;34247;50.064;19.970;2023-03-14T00:46:33;1.23;;;1.23;;
21084;SDS011;34247;50.064;19.970;2023-03-14T00:47:37;1.00;;;1.00;;
21084;SDS011;34247;50.064;19.970;2023-03-14T00:48:41;1.20;;;1.10;;
21084;SDS011;34247;50.064;19.970;2023-03-14T00:49:45;1.27;;;0.90;;
21084;SDS011;34247;50.064;19.970;2023-03-14T00:50:50;1.05;;;1.05;;
21084;SDS011;34247;50.064;19.970;2023-03-14T00:51:54;1.23;;;1.10;;
21084;SDS011;34247;50.064;19.970;2023-03-14T00:52:58;1.00;;;1.00;;
21084;SDS011;34247;50.064;19.970;2023-03-14T00:54:02;4.07;;;1.17;;
21084;SDS011;34247;50.064;19.970;2023-03-14T00:55:06;0.85;;;0.85;;
21084;SDS011;34247;50.064;19.970;2023-03-14T00:56:11;1.95;;;1.17;;
21084;SDS011;34247;50.064;19.970;2023-03-14T00:57:16;1.40;;;1.30;;
21084;SDS011;34247;50.064;19.970;2023-03-14T00:58:20;2.65;;;1.45;;
21084;SDS011;34247;50.064;19.970;2023-03-14T00:59:23;0.80;;;0.80;;
21084;SDS011;34247;50.064;19.970;2023-03-14T01:00:27;1.58;;;1.48;;
21084;SDS011;34247;50.064;19.970;2023-03-14T01:01:31;3.17;;;1.40;;
21084;SDS011;34247;50.064;19.970;2023-03-14T01:02:34;1.20;;;1.10;;
21084;SDS011;34247;50.064;19.970;2023-03-14T01:03:38;1.55;;;1.45;;
21084;SDS011;34247;50.064;19.970;2023-03-14T01:04:42;4.15;;;1.30;;
21084;SDS011;34247;50.064;19.970;2023-03-14T01:05:45;1.40;;;1.20;;
21084;SDS011;34247;50.064;19.970;2023-03-14T01:06:49;2.17;;;1.35;;
21084;SDS011;34247;50.064;19.970;2023-03-14T01:07:52;1.00;;;1.00;;
21084;SDS011;34247;50.064;19.970;2023-03-14T01:08:57;2.13;;;1.13;;
21084;SDS011;34247;50.064;19.970;2023-03-14T01:10:02;1.40;;;1.30;;
21084;SDS011;34247;50.064;19.970;2023-03-14T01:11:09;1.27;;;1.08;;
21084;SDS011;34247;50.064;19.970;2023-03-14T01:12:16;2.00;;;1.27;;
21084;SDS011;34247;50.064;19.970;2023-03-14T01:13:21;1.27;;;1.20;;
21084;SDS011;34247;50.064;19.970;2023-03-14T01:14:26;1.17;;;1.08;;
21084;SDS011;34247;50.064;19.970;2023-03-14T01:15:33;1.52;;;1.30;;
21084;SDS011;34247;50.064;19.970;2023-03-14T01:16:38;2.38;;;1.13;;
21084;SDS011;34247;50.064;19.970;2023-03-14T01:17:45;2.55;;;1.52;;
21084;SDS011;34247;50.064;19.970;2023-03-14T01:18:50;0.90;;;0.90;;
21084;SDS011;34247;50.064;19.970;2023-03-14T01:19:54;0.85;;;0.85;;
21084;SDS011;34247;50.064;19.970;2023-03-14T01:20:59;1.05;;;1.05;;
21084;SDS011;34247;50.064;19.970;2023-03-14T01:22:02;1.85;;;1.25;;
21084;SDS011;34247;50.064;19.970;2023-03-14T01:23:07;1.65;;;1.10;;
21084;SDS011;34247;50.064;19.970;2023-03-14T01:24:10;0.95;;;0.95;;
21084;SDS011;34247;50.064;19.970;2023-03-14T01:25:15;1.17;;;1.00;;
21084;SDS011;34247;50.064;19.970;2023-03-14T01:26:22;1.95;;;1.20;;
21084;SDS011;34247;50.064;19.970;2023-03-14T01:27:28;1.17;;;1.08;;
21084;SDS011;34247;50.064;19.970;2023-03-14T01:28:32;1.00;;;1.00;;
21084;SDS011;34247;50.064;19.970;2023-03-14T01:29:35;1.63;;;1.20;;
21084;SDS011;34247;50.064;19.970;2023-03-14T01:30:39;1.17;;;1.17;;
21084;SDS011;34247;50.064;19.970;2023-03-14T01:31:43;0.98;;;0.95;;
21084;SDS011;34247;50.064;19.970;2023-03-14T01:32:47;1.50;;;1.17;;
21084;SDS011;34247;50.064;19.970;2023-03-14T01:33:53;2.58;;;1.33;;
21084;SDS011;34247;50.064;19.970;2023-03-14T01:34:57;2.78;;;1.50;;
21084;SDS011;34247;50.064;19.970;2023-03-14T01:36:01;1.15;;;1.08;;
21084;SDS011;34247;50.064;19.970;2023-03-14T01:37:07;1.23;;;1.15;;
21084;SDS011;34247;50.064;19.970;2023-03-14T01:38:11;1.38;;;1.02;;
21084;SDS011;34247;50.064;19.970;2023-03-14T01:39:17;1.33;;;1.23;;
21084;SDS011;34247;50.064;19.970;2023-03-14T01:40:21;2.00;;;1.35;;
21084;SDS011;34247;50.064;19.970;2023-03-14T01:41:25;1.55;;;1.45;;
21084;SDS011;34247;50.064;19.970;2023-03-14T01:42:29;1.10;;;1.00;;
21084;SDS011;34247;50.064;19.970;2023-03-14T01:43:33;1.40;;;1.30;;
21084;SDS011;34247;50.064;19.970;2023-03-14T01:44:50;1.30;;;1.27;;
21084;SDS011;34247;50.064;19.970;2023-03-14T01:47:11;1.30;;;1.20;;
21084;SDS011;34247;50.064;19.970;2023-03-14T01:48:15;1.40;;;1.30;;
21084;SDS011;34247;50.064;19.970;2023-03-14T01:49:21;0.93;;;0.93;;
21084;SDS011;34247;50.064;19.970;2023-03-14T01:50:38;1.10;;;1.02;;
21084;SDS011;34247;50.064;19.970;2023-03-14T01:51:44;1.05;;;1.05;;
21084;SDS011;34247;50.064;19.970;2023-03-14T01:53:03;4.25;;;1.45;;
21084;SDS011;34247;50.064;19.970;2023-03-14T01:54:15;1.67;;;1.13;;
21084;SDS011;34247;50.064;19.970;2023-03-14T01:55:23;2.08;;;1.38;;
21084;SDS011;34247;50.064;19.970;2023-03-14T01:56:29;1.48;;;1.15;;
21084;SDS011;34247;50.064;19.970;2023-03-14T01:57:38;1.30;;;1.10;;
21084;SDS011;34247;50.064;19.970;2023-03-14T01:58:48;1.00;;;1.00;;
21084;SDS011;34247;50.064;19.970;2023-03-14T02:00:06;1.20;;;1.10;;
21084;SDS011;34247;50.064;19.970;2023-03-14T02:01:16;1.35;;;1.25;;
21084;SDS011;34247;50.064;19.970;2023-03-14T02:02:24;1.10;;;1.00;;
21084;SDS011;34247;50.064;19.970;2023-03-14T02:03:34;1.08;;;1.08;;
21084;SDS011;34247;50.064;19.970;2023-03-14T02:04:55;1.23;;;1.23;;
21084;SDS011;34247;50.064;19.970;2023-03-14T02:06:03;1.35;;;1.25;;
21084;SDS011;34247;50.064;19.970;2023-03-14T02:08:23;1.02;;;1.02;;
21084;SDS011;34247;50.064;19.970;2023-03-14T02:29:46;1.58;;;1.33;;
21084;SDS011;34247;50.064;19.970;2023-03-14T02:31:02;1.15;;;1.13;;
21084;SDS011;34247;50.064;19.970;2023-03-14T02:32:06;1.65;;;1.50;;
21084;SDS011;34247;50.064;19.970;2023-03-14T02:33:11;1.65;;;1.05;;
21084;SDS011;34247;50.064;19.970;2023-03-14T02:34:21;3.15;;;1.50;;
21084;SDS011;34247;50.064;19.970;2023-03-14T02:35:29;3.83;;;1.60;;
21084;SDS011;34247;50.064;19.970;2023-03-14T02:36:59;1.85;;;1.33;;
21084;SDS011;34247;50.064;19.970;2023-03-14T02:38:10;2.05;;;1.33;;
21084;SDS011;34247;50.064;19.970;2023-03-14T02:39:44;1.75;;;1.63;;
21084;SDS011;34247;50.064;19.970;2023-03-14T02:40:49;1.00;;;1.00;;
21084;SDS011;34247;50.064;19.970;2023-03-14T02:41:53;1.08;;;1.08;;
21084;SDS011;34247;50.064;19.970;2023-03-14T02:42:57;1.00;;;1.00;;
21084;SDS011;34247;50.064;19.970;2023-03-14T02:44:00;1.50;;;1.40;;
21084;SDS011;34247;50.064;19.970;2023-03-14T02:46:15;4.97;;;0.90;;
21084;SDS011;34247;50.064;19.970;2023-03-14T02:47:26;1.48;;;1.00;;
21084;SDS011;34247;50.064;19.970;2023-03-14T02:48:35;1.15;;;1.08;;
21084;SDS011;34247;50.064;19.970;2023-03-14T02:49:46;1.00;;;0.90;;
21084;SDS011;34247;50.064;19.970;2023-03-14T02:50:53;1.58;;;1.25;;
21084;SDS011;34247;50.064;19.970;2023-03-14T02:52:00;1.20;;;1.17;;
21084;SDS011;34247;50.064;19.970;2023-03-14T02:53:05;0.88;;;0.88;;
21084;SDS011;34247;50.064;19.970;2023-03-14T02:54:08;1.23;;;1.20;;
21084;SDS011;34247;50.064;19.970;2023-03-14T02:55:13;1.33;;;1.20;;
21084;SDS011;34247;50.064;19.970;2023-03-14T02:56:17;1.55;;;1.23;;
21084;SDS011;34247;50.064;19.970;2023-03-14T02:57:20;1.45;;;1.35;;
21084;SDS011;34247;50.064;19.970;2023-03-14T02:58:25;1.67;;;1.38;;
21084;SDS011;34247;50.064;19.970;2023-03-14T02:59:29;2.03;;;1.55;;
21084;SDS011;34247;50.064;19.970;2023-03-14T03:00:33;1.50;;;1.40;;
21084;SDS011;34247;50.064;19.970;2023-03-14T03:01:36;0.95;;;0.90;;
21084;SDS011;34247;50.064;19.970;2023-03-14T03:02:40;1.25;;;1.20;;
21084;SDS011;34247;50.064;19.970;2023-03-14T03:03:43;1.52;;;1.42;;
21084;SDS011;34247;50.064;19.970;2023-03-14T03:04:47;7.57;;;1.70;;
21084;SDS011;34247;50.064;19.970;2023-03-14T03:05:52;1.25;;;1.15;;
21084;SDS011;34247;50.064;19.970;2023-03-14T03:06:58;1.17;;;1.17;;
21084;SDS011;34247;50.064;19.970;2023-03-14T03:08:01;1.27;;;1.20;;
21084;SDS011;34247;50.064;19.970;2023-03-14T03:09:06;1.23;;;1.13;;
21084;SDS011;34247;50.064;19.970;2023-03-14T03:10:10;3.28;;;1.08;;
21084;SDS011;34247;50.064;19.970;2023-03-14T03:11:14;2.17;;;0.93;;
21084;SDS011;34247;50.064;19.970;2023-03-14T03:12:18;3.08;;;1.73;;
21084;SDS011;34247;50.064;19.970;2023-03-14T03:13:23;1.20;;;1.20;;
21084;SDS011;34247;50.064;19.970;2023-03-14T03:14:28;0.90;;;0.90;;
21084;SDS011;34247;50.064;19.970;2023-03-14T03:15:32;1.95;;;1.20;;
21084;SDS011;34247;50.064;19.970;2023-03-14T03:16:36;1.58;;;1.52;;
21084;SDS011;34247;50.064;19.970;2023-03-14T03:17:39;4.13;;;1.35;;
21084;SDS011;34247;50.064;19.970;2023-03-14T03:18:43;1.27;;;1.00;;
21084;SDS011;34247;50.064;19.970;2023-03-14T03:19:47;2.70;;;1.02;;
21084;SDS011;34247;50.064;19.970;2023-03-14T03:20:51;1.35;;;1.25;;
21084;SDS011;34247;50.064;19.970;2023-03-14T03:21:55;1.45;;;1.30;;
21084;SDS011;34247;50.064;19.970;2023-03-14T03:22:58;2.90;;;1.30;;
21084;SDS011;34247;50.064;19.970;2023-03-14T03:24:02;1.20;;;1.20;;
21084;SDS011;34247;50.064;19.970;2023-03-14T03:25:07;1.38;;;1.27;;
21084;SDS011;34247;50.064;19.970;2023-03-14T03:26:12;2.38;;;1.63;;
21084;SDS011;34247;50.064;19.970;2023-03-14T03:27:16;1.60;;;1.50;;
21084;SDS011;34247;50.064;19.970;2023-03-14T03:28:20;1.13;;;1.13;;
21084;SDS011;34247;50.064;19.970;2023-03-14T03:29:24;5.10;;;1.63;;
21084;SDS011;34247;50.064;19.970;2023-03-14T03:30:28;5.88;;;1.27;;
21084;SDS011;34247;50.064;19.970;2023-03-14T03:31:32;0.90;;;0.90;;
21084;SDS011;34247;50.064;19.970;2023-03-14T03:32:36;2.40;;;1.70;;
21084;SDS011;34247;50.064;19.970;2023-03-14T03:33:40;2.15;;;1.40;;
21084;SDS011;34247;50.064;19.970;2023-03-14T03:34:44;1.23;;;1.20;;
21084;SDS011;34247;50.064;19.970;2023-03-14T03:35:49;0.77;;;0.77;;
21084;SDS011;34247;50.064;19.970;2023-03-14T03:36:55;1.10;;;1.00;;
21084;SDS011;34247;50.064;19.970;2023-03-14T03:38:00;1.20;;;1.20;;
21084;SDS011;34247;50.064;19.970;2023-03-14T03:39:03;1.15;;;1.10;;
21084;SDS011;34247;50.064;19.970;2023-03-14T03:40:08;1.30;;;1.20;;
21084;SDS011;34247;50.064;19.970;2023-03-14T03:41:12;1.70;;;1.38;;
21084;SDS011;34247;50.064;19.970;2023-03-14T03:42:16;1.40;;;1.33;;
21084;SDS011;34247;50.064;19.970;2023-03-14T03:43:22;2.65;;;1.33;;
21084;SDS011;34247;50.064;19.970;2023-03-14T03:44:25;1.30;;;1.17;;
21084;SDS011;34247;50.064;19.970;2023-03-14T03:45:29;3.95;;;1.27;;
21084;SDS011;34247;50.064;19.970;2023-03-14T03:46:34;1.60;;;1.50;;
21084;SDS011;34247;50.064;19.970;2023-03-14T03:47:38;1.40;;;1.40;;
21084;SDS011;34247;50.064;19.970;2023-03-14T03:48:42;1.40;;;1.30;;
21084;SDS011;34247;50.064;19.970;2023-03-14T03:49:46;1.38;;;1.38;;
21084;SDS011;34247;50.064;19.970;2023-03-14T03:50:49;5.63;;;1.52;;
21084;SDS011;34247;50.064;19.970;2023-03-14T03:51:53;1.77;;;1.67;;
21084;SDS011;34247;50.064;19.970;2023-03-14T03:52:57;1.50;;;1.40;;
21084;SDS011;34247;50.064;19.970;2023-03-14T03:54:01;3.13;;;1.20;;
21084;SDS011;34247;50.064;19.970;2023-03-14T03:55:05;1.40;;;1.30;;
21084;SDS011;34247;50.064;19.970;2023-03-14T03:56:09;1.45;;;1.13;;
21084;SDS011;34247;50.064;19.970;2023-03-14T03:57:13;1.88;;;1.20;;
21084;SDS011;34247;50.064;19.970;2023-03-14T03:58:17;1.80;;;1.52;;
21084;SDS011;34247;50.064;19.970;2023-03-14T03:59:20;1.42;;;1.23;;
21084;SDS011;34247;50.064;19.970;2023-03-14T04:00:24;1.02;;;1.02;;
21084;SDS011;34247;50.064;19.970;2023-03-14T04:01:28;1.90;;;1.33;;
21084;SDS011;34247;50.064;19.970;2023-03-14T04:02:35;3.80;;;1.42;;
21084;SDS011;34247;50.064;19.970;2023-03-14T04:03:39;1.58;;;1.48;;
21084;SDS011;34247;50.064;19.970;2023-03-14T04:04:43;1.35;;;1.17;;
21084;SDS011;34247;50.064;19.970;2023-03-14T04:05:57;1.20;;;1.20;;
21084;SDS011;34247;50.064;19.970;2023-03-14T04:07:13;1.52;;;1.40;;
21084;SDS011;34247;50.064;19.970;2023-03-14T04:08:17;1.63;;;1.52;;
21084;SDS011;34247;50.064;19.970;2023-03-14T04:09:21;1.65;;;1.30;;
21084;SDS011;34247;50.064;19.970;2023-03-14T04:10:25;4.85;;;1.60;;
21084;SDS011;34247;50.064;19.970;2023-03-14T04:11:29;1.55;;;1.45;;
21084;SDS011;34247;50.064;19.970;2023-03-14T04:12:33;0.88;;;0.88;;
21084;SDS011;34247;50.064;19.970;2023-03-14T04:13:37;2.03;;;1.10;;
21084;SDS011;34247;50.064;19.970;2023-03-14T04:14:40;1.50;;;1.00;;
21084;SDS011;34247;50.064;19.970;2023-03-14T04:15:44;1.10;;;1.10;;
21084;SDS011;34247;50.064;19.970;2023-03-14T04:16:48;1.00;;;1.00;;
21084;SDS011;34247;50.064;19.970;2023-03-14T04:17:55;1.23;;;1.10;;
21084;SDS011;34247;50.064;19.970;2023-03-14T04:19:01;0.80;;;0.80;;
21084;SDS011;34247;50.064;19.970;2023-03-14T04:20:06;2.47;;;1.75;;
21084;SDS011;34247;50.064;19.970;2023-03-14T04:21:13;3.10;;;1.45;;
21084;SDS011;34247;50.064;19.970;2023-03-14T04:22:18;0.85;;;0.85;;
21084;SDS011;34247;50.064;19.970;2023-03-14T04:23:22;1.13;;;1.10;;
21084;SDS011;34247;50.064;19.970;2023-03-14T04:24:27;2.33;;;1.38;;
21084;SDS011;34247;50.064;19.970;2023-03-14T04:25:31;1.50;;;1.40;;
21084;SDS011;34247;50.064;19.970;2023-03-14T04:26:35;3.10;;;1.40;;
21084;SDS011;34247;50.064;19.970;2023-03-14T04:27:39;2.45;;;1.63;;
21084;SDS011;34247;50.064;19.970;2023-03-14T04:28:43;4.72;;;1.33;;
21084;SDS011;34247;50.064;19.970;2023-03-14T04:29:47;1.55;;;1.20;;
21084;SDS011;34247;50.064;19.970;2023-03-14T04:30:51;0.98;;;0.90;;
21084;SDS011;34247;50.064;19.970;2023-03-14T04:31:55;1.05;;;1.00;;
21084;SDS011;34247;50.064;19.970;2023-03-14T04:32:59;1.10;;;1.10;;
21084;SDS011;34247;50.064;19.970;2023-03-14T04:34:04;1.85;;;1.40;;
21084;SDS011;34247;50.064;19.970;2023-03-14T04:35:07;1.42;;;1.33;;
21084;SDS011;34247;50.064;19.970;2023-03-14T04:36:11;1.90;;;1.45;;
21084;SDS011;34247;50.064;19.970;2023-03-14T04:37:16;1.80;;;1.70;;
21084;SDS011;34247;50.064;19.970;2023-03-14T04:38:20;1.48;;;1.38;;
21084;SDS011;34247;50.064;19.970;2023-03-14T04:39:25;1.60;;;1.50;;
21084;SDS011;34247;50.064;19.970;2023-03-14T04:40:29;2.83;;;1.58;;
21084;SDS011;34247;50.064;19.970;2023-03-14T04:41:33;4.45;;;1.20;;
21084;SDS011;34247;50.064;19.970;2023-03-14T04:42:37;1.45;;;1.00;;
21084;SDS011;34247;50.064;19.970;2023-03-14T04:43:41;1.55;;;1.45;;
21084;SDS011;34247;50.064;19.970;2023-03-14T04:44:44;1.70;;;1.35;;
21084;SDS011;34247;50.064;19.970;2023-03-14T04:45:49;1.42;;;1.33;;
21084;SDS011;34247;50.064;19.970;2023-03-14T04:46:53;1.45;;;1.35;;
21084;SDS011;34247;50.064;19.970;2023-03-14T04:47:57;1.23;;;1.15;;
21084;SDS011;34247;50.064;19.970;2023-03-14T04:49:02;1.02;;;1.00;;
21084;SDS011;34247;50.064;19.970;2023-03-14T04:50:08;1.63;;;1.52;;
21084;SDS011;34247;50.064;19.970;2023-03-14T04:51:13;1.30;;;1.20;;
21084;SDS011;34247;50.064;19.970;2023-03-14T04:52:17;1.40;;;1.33;;
21084;SDS011;34247;50.064;19.970;2023-03-14T04:53:24;1.50;;;1.05;;
21084;SDS011;34247;50.064;19.970;2023-03-14T04:54:30;3.47;;;1.63;;
21084;SDS011;34247;50.064;19.970;2023-03-14T04:55:34;1.23;;;1.13;;
21084;SDS011;34247;50.064;19.970;2023-03-14T04:56:38;1.92;;;1.52;;
21084;SDS011;34247;50.064;19.970;2023-03-14T04:57:41;2.30;;;1.30;;
21084;SDS011;34247;50.064;19.970;2023-03-14T04:58:45;1.45;;;1.30;;
21084;SDS011;34247;50.064;19.970;2023-03-14T04:59:52;4.78;;;1.73;;
21084;SDS011;34247;50.064;19.970;2023-03-14T05:01:00;8.48;;;1.92;;
21084;SDS011;34247;50.064;19.970;2023-03-14T05:02:08;5.63;;;1.40;;
21084;SDS011;34247;50.064;19.970;2023-03-14T05:03:14;1.50;;;1.40;;
21084;SDS011;34247;50.064;19.970;2023-03-14T05:04:19;2.35;;;1.20;;
21084;SDS011;34247;50.064;19.970;2023-03-14T05:05:23;2.10;;;1.40;;
21084;SDS011;34247;50.064;19.970;2023-03-14T05:06:26;1.10;;;1.10;;
21084;SDS011;34247;50.064;19.970;2023-03-14T05:07:30;1.60;;;1.50;;
21084;SDS011;34247;50.064;19.970;2023-03-14T05:08:34;9.68;;;1.70;;
21084;SDS011;34247;50.064;19.970;2023-03-14T05:09:37;2.55;;;1.67;;
21084;SDS011;34247;50.064;19.970;2023-03-14T05:10:41;1.67;;;1.50;;
21084;SDS011;34247;50.064;19.970;2023-03-14T05:11:44;3.83;;;2.00;;
21084;SDS011;34247;50.064;19.970;2023-03-14T05:12:48;1.77;;;1.60;;
21084;SDS011;34247;50.064;19.970;2023-03-14T05:13:52;1.75;;;1.65;;
21084;SDS011;34247;50.064;19.970;2023-03-14T05:14:56;2.17;;;2.08;;
21084;SDS011;34247;50.064;19.970;2023-03-14T05:16:06;8.27;;;1.55;;
21084;SDS011;34247;50.064;19.970;2023-03-14T05:17:14;1.40;;;1.30;;
21084;SDS011;34247;50.064;19.970;2023-03-14T05:18:18;6.35;;;2.28;;
21084;SDS011;34247;50.064;19.970;2023-03-14T05:19:22;2.28;;;1.65;;
21084;SDS011;34247;50.064;19.970;2023-03-14T05:20:25;2.95;;;1.10;;
21084;SDS011;34247;50.064;19.970;2023-03-14T05:21:32;1.73;;;1.63;;
21084;SDS011;34247;50.064;19.970;2023-03-14T05:22:36;1.90;;;1.77;;
21084;SDS011;34247;50.064;19.970;2023-03-14T05:23:40;1.88;;;1.60;;
21084;SDS011;34247;50.064;19.970;2023-03-14T05:24:44;1.90;;;1.75;;
21084;SDS011;34247;50.064;19.970;2023-03-14T05:25:50;1.70;;;1.60;;
21084;SDS011;34247;50.064;19.970;2023-03-14T05:26:54;5.28;;;1.80;;
21084;SDS011;34247;50.064;19.970;2023-03-14T05:27:58;2.25;;;2.00;;
21084;SDS011;34247;50.064;19.970;2023-03-14T05:29:02;4.38;;;1.88;;
21084;SDS011;34247;50.064;19.970;2023-03-14T05:30:06;3.42;;;2.17;;
21084;SDS011;34247;50.064;19.970;2023-03-14T05:31:11;2.47;;;1.50;;
21084;SDS011;34247;50.064;19.970;2023-03-14T05:32:15;1.52;;;1.40;;
21084;SDS011;34247;50.064;19.970;2023-03-14T05:33:19;3.47;;;1.60;;
21084;SDS011;34247;50.064;19.970;2023-03-14T05:34:23;2.75;;;1.80;;
21084;SDS011;34247;50.064;19.970;2023-03-14T05:35:30;1.70;;;1.50;;
21084;SDS011;34247;50.064;19.970;2023-03-14T05:36:34;2.22;;;1.65;;
21084;SDS011;34247;50.064;19.970;2023-03-14T05:37:38;4.15;;;2.05;;
21084;SDS011;34247;50.064;19.970;2023-03-14T05:38:42;4.85;;;3.55;;
21084;SDS011;34247;50.064;19.970;2023-03-14T05:39:46;2.85;;;2.63;;
21084;SDS011;34247;50.064;19.970;2023-03-14T05:40:53;11.52;;;3.13;;
21084;SDS011;34247;50.064;19.970;2023-03-14T05:41:57;6.28;;;2.53;;
21084;SDS011;34247;50.064;19.970;2023-03-14T05:43:01;6.05;;;2.47;;
21084;SDS011;34247;50.064;19.970;2023-03-14T05:44:05;2.70;;;2.17;;
21084;SDS011;34247;50.064;19.970;2023-03-14T05:45:09;1.80;;;1.65;;
21084;SDS011;34247;50.064;19.970;2023-03-14T05:46:13;2.35;;;2.15;;
21084;SDS011;34247;50.064;19.970;2023-03-14T05:47:17;1.60;;;1.50;;
21084;SDS011;34247;50.064;19.970;2023-03-14T05:48:21;2.28;;;1.98;;
21084;SDS011;34247;50.064;19.970;2023-03-14T05:49:25;1.98;;;1.58;;
21084;SDS011;34247;50.064;19.970;2023-03-14T05:50:28;2.10;;;1.73;;
21084;SDS011;34247;50.064;19.970;2023-03-14T05:51:33;8.45;;;1.85;;
21084;SDS011;34247;50.064;19.970;2023-03-14T05:52:45;1.60;;;1.50;;
21084;SDS011;34247;50.064;19.970;2023-03-14T05:53:49;1.90;;;1.80;;
21084;SDS011;34247;50.064;19.970;2023-03-14T05:54:53;3.17;;;1.80;;
21084;SDS011;34247;50.064;19.970;2023-03-14T05:55:57;1.92;;;1.83;;
21084;SDS011;34247;50.064;19.970;2023-03-14T05:57:00;1.80;;;1.70;;
21084;SDS011;34247;50.064;19.970;2023-03-14T05:58:04;7.82;;;2.28;;
21084;SDS011;34247;50.064;19.970;2023-03-14T05:59:07;1.80;;;1.67;;
21084;SDS011;34247;50.064;19.970;2023-03-14T06:00:12;2.20;;;1.80;;
21084;SDS011;34247;50.064;19.970;2023-03-14T06:01:17;2.00;;;1.88;;
21084;SDS011;34247;50.064;19.970;2023-03-14T06:02:20;1.80;;;1.65;;
21084;SDS011;34247;50.064;19.970;2023-03-14T06:03:24;2.22;;;2.03;;
21084;SDS011;34247;50.064;19.970;2023-03-14T06:04:28;1.75;;;1.63;;
21084;SDS011;34247;50.064;19.970;2023-03-14T06:05:32;1.65;;;1.55;;
21084;SDS011;34247;50.064;19.970;2023-03-14T06:06:36;3.42;;;1.65;;
21084;SDS011;34247;50.064;19.970;2023-03-14T06:07:40;2.65;;;1.88;;
21084;SDS011;34247;50.064;19.970;2023-03-14T06:08:43;2.38;;;1.40;;
21084;SDS011;34247;50.064;19.970;2023-03-14T06:09:47;8.13;;;1.77;;
21084;SDS011;34247;50.064;19.970;2023-03-14T06:10:52;1.52;;;1.42;;
21084;SDS011;34247;50.064;19.970;2023-03-14T06:11:55;1.77;;;1.67;;
21084;SDS011;34247;50.064;19.970;2023-03-14T06:12:59;1.88;;;1.77;;
21084;SDS011;34247;50.064;19.970;2023-03-14T06:14:03;1.95;;;1.75;;
21084;SDS011;34247;50.064;19.970;2023-03-14T06:15:07;1.23;;;1.23;;
21084;SDS011;34247;50.064;19.970;2023-03-14T06:16:12;1.60;;;1.50;;
21084;SDS011;34247;50.064;19.970;2023-03-14T06:17:17;3.45;;;1.88;;
21084;SDS011;34247;50.064;19.970;2023-03-14T06:18:21;2.38;;;1.70;;
21084;SDS011;34247;50.064;19.970;2023-03-14T06:19:25;5.78;;;2.10;;
21084;SDS011;34247;50.064;19.970;2023-03-14T06:20:30;1.77;;;1.63;;
21084;SDS011;34247;50.064;19.970;2023-03-14T06:21:37;2.50;;;1.92;;
21084;SDS011;34247;50.064;19.970;2023-03-14T06:22:42;2.05;;;1.65;;
21084;SDS011;34247;50.064;19.970;2023-03-14T06:23:46;1.65;;;1.55;;
21084;SDS011;34247;50.064;19.970;2023-03-14T06:24:52;1.83;;;1.73;;
21084;SDS011;34247;50.064;19.970;2023-03-14T06:25:57;1.55;;;1.45;;
21084;SDS011;34247;50.064;19.970;2023-03-14T06:27:01;4.70;;;2.55;;
21084;SDS011;34247;50.064;19.970;2023-03-14T06:28:05;2.50;;;1.65;;
21084;SDS011;34247;50.064;19.970;2023-03-14T06:29:09;4.32;;;1.70;;
21084;SDS011;34247;50.064;19.970;2023-03-14T06:30:17;2.45;;;2.13;;
21084;SDS011;34247;50.064;19.970;2023-03-14T06:31:20;4.07;;;1.90;;
21084;SDS011;34247;50.064;19.970;2023-03-14T06:32:25;2.95;;;2.03;;
21084;SDS011;34247;50.064;19.970;2023-03-14T06:33:28;2.72;;;1.95;;
21084;SDS011;34247;50.064;19.970;2023-03-14T06:34:32;2.90;;;1.83;;
21084;SDS011;34247;50.064;19.970;2023-03-14T06:35:36;5.80;;;2.20;;
21084;SDS011;34247;50.064;19.970;2023-03-14T06:36:41;2.75;;;1.60;;
21084;SDS011;34247;50.064;19.970;2023-03-14T06:37:48;2.03;;;1.73;;
21084;SDS011;34247;50.064;19.970;2023-03-14T06:38:52;3.90;;;1.95;;
21084;SDS011;34247;50.064;19.970;2023-03-14T06:39:56;2.92;;;2.00;;
21084;SDS011;34247;50.064;19.970;2023-03-14T06:41:03;4.10;;;2.60;;
21084;SDS011;34247;50.064;19.970;2023-03-14T06:42:09;2.15;;;1.98;;
21084;SDS011;34247;50.064;19.970;2023-03-14T06:43:13;1.83;;;1.60;;
21084;SDS011;34247;50.064;19.970;2023-03-14T06:44:17;1.83;;;1.73;;
21084;SDS011;34247;50.064;19.970;2023-03-14T06:45:21;1.55;;;1.45;;
21084;SDS011;34247;50.064;19.970;2023-03-14T06:46:25;2.88;;;2.28;;
21084;SDS011;34247;50.064;19.970;2023-03-14T06:47:32;3.53;;;1.63;;
21084;SDS011;34247;50.064;19.970;2023-03-14T06:48:36;3.17;;;2.13;;
21084;SDS011;34247;50.064;19.970;2023-03-14T06:49:40;2.15;;;1.95;;